Pagina principală
METAR-TAF:

METAR-TAF

Aeroporturi :

San Fernando, Argentina

Latitudine: 34-27-11S, longitudine: 058-35-23W, elevație: 3 m

Observații meteo curente

Raportul a fost făcut în urmă cu 32 de minute, la 06:00 UTC
Vânt 3 kt de la Vest/Sud-vest
Temperatură 6°C
Umiditate 75%
Presiune 1021 hPa
Vizibilitate de 10 km sau mai mult
nu există nori sub 1.500 m și nici cumulonimbus

METAR: SADF 240600Z 24003KT CAVOK 06/02 Q1021

Ora: 03:32 (06:32 UTC)

Prognoză

Raportul a fost făcut în urmă cu 1 oră și 32 de minute, la 05:00 UTC
Prognoză valabilă de la 24 ora 06 UTC la 25 ora 06 UTC
Vânt 5 kt de la Sud-vest
Vizibilitate de 10 km sau mai mult
nu există nori sub 1.500 m și nici cumulonimbus
Devenind
de la 24 ora 10 UTC la 24 ora 12 UTC
Vânt 10 kt de la Sud
Vizibilitate de 10 km sau mai mult
Nori împrăștiați la o înălțime de 3500 picior

TAF: SADF 240500Z 2406/2506 23005KT CAVOK TX13/2418Z TN04/2411Z BECMG 2410/2412 18010KT 9999 SCT035

Observații și prognoze meteo pentru peste 4.000 de aeroporturi (rapoarte METAR și TAF).

Stațiile disponibile sunt reprezentate pe hartă prin puncte galbene și roșii.

Țineți indicatorul mouse-ului pe punctul dorit pentru a vedea denumirea stației.

Apoi, faceți clic pentru a vedea observațiile și prognozele meteorologice.

Pentru a schimba harta: Pentru mărire, faceți clic pe butoanele verzi cu cruce neagră; pentru micșorare, pe butonul verde cu o liniuță; pentru hărți învecinate, pe săgețile verzi.


METAR-TAF: